sensor_id;sensor_type;location;lat;lon;timestamp;P1;durP1;ratioP1;P2;durP2;ratioP2
12218;SDS011;6172;42.646;23.344;2023-02-28T00:00:13;18.57;;;12.27;;
12218;SDS011;6172;42.646;23.344;2023-02-28T00:02:41;21.50;;;12.80;;
12218;SDS011;6172;42.646;23.344;2023-02-28T00:05:10;22.47;;;13.10;;
12218;SDS011;6172;42.646;23.344;2023-02-28T00:07:38;20.97;;;12.73;;
12218;SDS011;6172;42.646;23.344;2023-02-28T00:10:06;21.43;;;12.20;;
12218;SDS011;6172;42.646;23.344;2023-02-28T00:12:35;22.00;;;12.80;;
12218;SDS011;6172;42.646;23.344;2023-02-28T00:15:05;20.17;;;11.80;;
12218;SDS011;6172;42.646;23.344;2023-02-28T00:17:33;19.27;;;11.30;;
12218;SDS011;6172;42.646;23.344;2023-02-28T00:20:00;19.97;;;11.57;;
12218;SDS011;6172;42.646;23.344;2023-02-28T00:22:37;18.13;;;11.37;;
12218;SDS011;6172;42.646;23.344;2023-02-28T00:25:06;18.60;;;11.70;;
12218;SDS011;6172;42.646;23.344;2023-02-28T00:27:35;18.20;;;11.23;;
12218;SDS011;6172;42.646;23.344;2023-02-28T00:30:04;20.67;;;12.00;;
12218;SDS011;6172;42.646;23.344;2023-02-28T00:32:34;19.47;;;10.10;;
12218;SDS011;6172;42.646;23.344;2023-02-28T00:35:02;18.17;;;10.57;;
12218;SDS011;6172;42.646;23.344;2023-02-28T00:37:30;17.80;;;10.27;;
12218;SDS011;6172;42.646;23.344;2023-02-28T00:39:57;18.97;;;11.20;;
12218;SDS011;6172;42.646;23.344;2023-02-28T00:42:24;20.63;;;12.13;;
12218;SDS011;6172;42.646;23.344;2023-02-28T00:44:53;19.97;;;11.70;;
12218;SDS011;6172;42.646;23.344;2023-02-28T00:47:20;18.07;;;10.67;;
12218;SDS011;6172;42.646;23.344;2023-02-28T00:49:47;17.70;;;10.73;;
12218;SDS011;6172;42.646;23.344;2023-02-28T00:52:14;18.20;;;10.33;;
12218;SDS011;6172;42.646;23.344;2023-02-28T00:54:41;21.30;;;11.17;;
12218;SDS011;6172;42.646;23.344;2023-02-28T00:57:08;20.63;;;11.93;;
12218;SDS011;6172;42.646;23.344;2023-02-28T00:59:36;19.30;;;11.23;;
12218;SDS011;6172;42.646;23.344;2023-02-28T01:02:04;19.53;;;12.00;;
12218;SDS011;6172;42.646;23.344;2023-02-28T01:04:32;18.87;;;10.80;;
12218;SDS011;6172;42.646;23.344;2023-02-28T01:06:59;18.83;;;10.80;;
12218;SDS011;6172;42.646;23.344;2023-02-28T01:09:26;19.47;;;11.57;;
12218;SDS011;6172;42.646;23.344;2023-02-28T01:11:53;20.73;;;12.10;;
12218;SDS011;6172;42.646;23.344;2023-02-28T01:14:20;22.00;;;12.17;;
12218;SDS011;6172;42.646;23.344;2023-02-28T01:16:47;20.33;;;12.23;;
12218;SDS011;6172;42.646;23.344;2023-02-28T01:19:16;18.93;;;11.70;;
12218;SDS011;6172;42.646;23.344;2023-02-28T01:21:43;19.53;;;11.60;;
12218;SDS011;6172;42.646;23.344;2023-02-28T01:24:10;21.40;;;12.90;;
12218;SDS011;6172;42.646;23.344;2023-02-28T01:26:37;21.13;;;12.07;;
12218;SDS011;6172;42.646;23.344;2023-02-28T01:29:04;24.23;;;12.67;;
12218;SDS011;6172;42.646;23.344;2023-02-28T01:31:31;21.13;;;12.63;;
12218;SDS011;6172;42.646;23.344;2023-02-28T01:34:00;22.67;;;12.63;;
12218;SDS011;6172;42.646;23.344;2023-02-28T01:36:28;22.37;;;12.27;;
12218;SDS011;6172;42.646;23.344;2023-02-28T01:38:55;21.13;;;12.30;;
12218;SDS011;6172;42.646;23.344;2023-02-28T01:41:23;21.53;;;12.20;;
12218;SDS011;6172;42.646;23.344;2023-02-28T01:43:53;24.17;;;12.83;;
12218;SDS011;6172;42.646;23.344;2023-02-28T01:46:25;20.80;;;13.10;;
12218;SDS011;6172;42.646;23.344;2023-02-28T01:48:53;26.23;;;15.00;;
12218;SDS011;6172;42.646;23.344;2023-02-28T01:51:26;24.53;;;14.57;;
12218;SDS011;6172;42.646;23.344;2023-02-28T01:53:58;28.10;;;14.87;;
12218;SDS011;6172;42.646;23.344;2023-02-28T01:56:29;26.30;;;14.53;;
12218;SDS011;6172;42.646;23.344;2023-02-28T01:59:00;23.17;;;14.37;;
12218;SDS011;6172;42.646;23.344;2023-02-28T02:01:27;28.73;;;15.40;;
12218;SDS011;6172;42.646;23.344;2023-02-28T02:03:57;26.53;;;14.73;;
12218;SDS011;6172;42.646;23.344;2023-02-28T02:06:34;29.23;;;15.43;;
12218;SDS011;6172;42.646;23.344;2023-02-28T02:09:04;26.67;;;16.67;;
12218;SDS011;6172;42.646;23.344;2023-02-28T02:11:31;26.73;;;15.43;;
12218;SDS011;6172;42.646;23.344;2023-02-28T02:14:04;31.83;;;16.27;;
12218;SDS011;6172;42.646;23.344;2023-02-28T02:17:03;29.07;;;15.97;;
12218;SDS011;6172;42.646;23.344;2023-02-28T02:19:46;29.60;;;15.40;;
12218;SDS011;6172;42.646;23.344;2023-02-28T02:22:41;25.33;;;14.53;;
12218;SDS011;6172;42.646;23.344;2023-02-28T02:25:34;29.37;;;14.70;;
12218;SDS011;6172;42.646;23.344;2023-02-28T02:28:14;26.07;;;15.60;;
12218;SDS011;6172;42.646;23.344;2023-02-28T02:31:17;29.37;;;15.57;;
12218;SDS011;6172;42.646;23.344;2023-02-28T02:34:16;29.07;;;16.43;;
12218;SDS011;6172;42.646;23.344;2023-02-28T02:36:54;29.00;;;16.23;;
12218;SDS011;6172;42.646;23.344;2023-02-28T02:39:36;29.20;;;15.63;;
12218;SDS011;6172;42.646;23.344;2023-02-28T02:42:14;28.53;;;15.83;;
12218;SDS011;6172;42.646;23.344;2023-02-28T02:44:46;30.43;;;16.43;;
12218;SDS011;6172;42.646;23.344;2023-02-28T02:47:19;33.17;;;16.90;;
12218;SDS011;6172;42.646;23.344;2023-02-28T02:49:54;34.60;;;17.70;;
12218;SDS011;6172;42.646;23.344;2023-02-28T02:52:25;33.50;;;16.97;;
12218;SDS011;6172;42.646;23.344;2023-02-28T02:55:02;31.30;;;17.37;;
12218;SDS011;6172;42.646;23.344;2023-02-28T02:57:33;31.83;;;17.53;;
12218;SDS011;6172;42.646;23.344;2023-02-28T03:00:03;32.43;;;18.17;;
12218;SDS011;6172;42.646;23.344;2023-02-28T03:02:33;32.37;;;18.03;;
12218;SDS011;6172;42.646;23.344;2023-02-28T03:05:04;32.83;;;18.33;;
12218;SDS011;6172;42.646;23.344;2023-02-28T03:07:38;33.73;;;18.10;;
12218;SDS011;6172;42.646;23.344;2023-02-28T03:13:07;37.00;;;18.93;;
12218;SDS011;6172;42.646;23.344;2023-02-28T03:15:48;37.07;;;18.00;;
12218;SDS011;6172;42.646;23.344;2023-02-28T03:18:24;36.50;;;18.77;;
12218;SDS011;6172;42.646;23.344;2023-02-28T03:21:01;38.60;;;20.50;;
12218;SDS011;6172;42.646;23.344;2023-02-28T03:23:35;37.93;;;20.27;;
12218;SDS011;6172;42.646;23.344;2023-02-28T03:26:12;42.87;;;21.77;;
12218;SDS011;6172;42.646;23.344;2023-02-28T03:28:47;50.07;;;21.40;;
12218;SDS011;6172;42.646;23.344;2023-02-28T03:31:20;42.37;;;20.60;;
12218;SDS011;6172;42.646;23.344;2023-02-28T03:33:54;40.67;;;20.63;;
12218;SDS011;6172;42.646;23.344;2023-02-28T03:36:30;42.00;;;20.20;;
12218;SDS011;6172;42.646;23.344;2023-02-28T03:39:09;37.20;;;19.03;;
12218;SDS011;6172;42.646;23.344;2023-02-28T03:41:41;35.97;;;19.03;;
12218;SDS011;6172;42.646;23.344;2023-02-28T03:44:15;38.33;;;19.40;;
12218;SDS011;6172;42.646;23.344;2023-02-28T03:46:48;41.80;;;19.43;;
12218;SDS011;6172;42.646;23.344;2023-02-28T03:49:20;42.53;;;19.90;;
12218;SDS011;6172;42.646;23.344;2023-02-28T03:51:52;38.70;;;19.70;;
12218;SDS011;6172;42.646;23.344;2023-02-28T03:54:23;59.50;;;19.73;;
12218;SDS011;6172;42.646;23.344;2023-02-28T03:56:54;44.63;;;21.20;;
12218;SDS011;6172;42.646;23.344;2023-02-28T03:59:28;45.40;;;20.47;;
12218;SDS011;6172;42.646;23.344;2023-02-28T04:01:59;44.20;;;19.77;;
12218;SDS011;6172;42.646;23.344;2023-02-28T04:04:26;53.03;;;19.67;;
12218;SDS011;6172;42.646;23.344;2023-02-28T04:07:00;57.37;;;20.80;;
12218;SDS011;6172;42.646;23.344;2023-02-28T04:09:28;42.27;;;18.17;;
12218;SDS011;6172;42.646;23.344;2023-02-28T04:11:55;66.57;;;20.20;;
12218;SDS011;6172;42.646;23.344;2023-02-28T04:14:22;39.37;;;19.13;;
12218;SDS011;6172;42.646;23.344;2023-02-28T04:16:50;43.67;;;20.30;;
12218;SDS011;6172;42.646;23.344;2023-02-28T04:19:17;44.80;;;19.90;;
12218;SDS011;6172;42.646;23.344;2023-02-28T04:21:48;39.90;;;19.63;;
12218;SDS011;6172;42.646;23.344;2023-02-28T04:24:18;47.10;;;20.87;;
12218;SDS011;6172;42.646;23.344;2023-02-28T04:26:48;42.67;;;19.70;;
12218;SDS011;6172;42.646;23.344;2023-02-28T04:29:18;45.43;;;18.40;;
12218;SDS011;6172;42.646;23.344;2023-02-28T04:31:47;38.00;;;17.23;;
12218;SDS011;6172;42.646;23.344;2023-02-28T04:34:14;39.40;;;16.43;;
12218;SDS011;6172;42.646;23.344;2023-02-28T04:36:41;37.80;;;18.07;;
12218;SDS011;6172;42.646;23.344;2023-02-28T04:39:08;37.60;;;16.87;;
12218;SDS011;6172;42.646;23.344;2023-02-28T04:41:37;36.67;;;17.40;;
12218;SDS011;6172;42.646;23.344;2023-02-28T04:44:04;35.10;;;16.60;;
12218;SDS011;6172;42.646;23.344;2023-02-28T04:46:31;35.47;;;16.60;;
12218;SDS011;6172;42.646;23.344;2023-02-28T04:48:58;34.23;;;16.80;;
12218;SDS011;6172;42.646;23.344;2023-02-28T04:51:25;37.83;;;16.53;;
12218;SDS011;6172;42.646;23.344;2023-02-28T04:53:52;36.90;;;18.20;;
12218;SDS011;6172;42.646;23.344;2023-02-28T04:56:19;38.53;;;16.37;;
12218;SDS011;6172;42.646;23.344;2023-02-28T04:58:48;37.17;;;16.40;;
12218;SDS011;6172;42.646;23.344;2023-02-28T05:01:17;41.17;;;18.30;;
12218;SDS011;6172;42.646;23.344;2023-02-28T05:03:46;33.40;;;16.30;;
12218;SDS011;6172;42.646;23.344;2023-02-28T05:06:13;35.87;;;16.47;;
12218;SDS011;6172;42.646;23.344;2023-02-28T05:08:40;38.60;;;17.00;;
12218;SDS011;6172;42.646;23.344;2023-02-28T05:11:15;34.33;;;16.50;;
12218;SDS011;6172;42.646;23.344;2023-02-28T05:13:44;36.87;;;16.37;;
12218;SDS011;6172;42.646;23.344;2023-02-28T05:16:14;35.67;;;17.20;;
12218;SDS011;6172;42.646;23.344;2023-02-28T05:18:41;37.83;;;17.00;;
12218;SDS011;6172;42.646;23.344;2023-02-28T05:21:17;36.50;;;17.93;;
12218;SDS011;6172;42.646;23.344;2023-02-28T05:23:50;35.33;;;17.10;;
12218;SDS011;6172;42.646;23.344;2023-02-28T05:26:17;37.67;;;16.80;;
12218;SDS011;6172;42.646;23.344;2023-02-28T05:28:44;37.27;;;17.80;;
12218;SDS011;6172;42.646;23.344;2023-02-28T05:31:13;41.00;;;17.97;;
12218;SDS011;6172;42.646;23.344;2023-02-28T05:33:40;40.07;;;18.10;;
12218;SDS011;6172;42.646;23.344;2023-02-28T05:36:08;47.63;;;19.27;;
12218;SDS011;6172;42.646;23.344;2023-02-28T05:38:36;40.53;;;18.90;;
12218;SDS011;6172;42.646;23.344;2023-02-28T05:41:04;50.27;;;20.73;;
12218;SDS011;6172;42.646;23.344;2023-02-28T05:43:37;43.57;;;20.03;;
12218;SDS011;6172;42.646;23.344;2023-02-28T05:46:04;49.00;;;21.10;;
12218;SDS011;6172;42.646;23.344;2023-02-28T05:48:34;45.60;;;21.37;;
12218;SDS011;6172;42.646;23.344;2023-02-28T05:51:03;48.37;;;21.60;;
12218;SDS011;6172;42.646;23.344;2023-02-28T05:53:31;50.73;;;21.67;;
12218;SDS011;6172;42.646;23.344;2023-02-28T05:55:58;48.77;;;21.00;;
12218;SDS011;6172;42.646;23.344;2023-02-28T05:58:25;51.47;;;22.40;;
12218;SDS011;6172;42.646;23.344;2023-02-28T06:00:55;55.20;;;22.80;;
12218;SDS011;6172;42.646;23.344;2023-02-28T06:03:22;47.03;;;22.53;;
12218;SDS011;6172;42.646;23.344;2023-02-28T06:05:51;52.97;;;23.57;;
12218;SDS011;6172;42.646;23.344;2023-02-28T06:08:18;52.20;;;23.63;;
12218;SDS011;6172;42.646;23.344;2023-02-28T06:10:46;45.73;;;21.80;;
12218;SDS011;6172;42.646;23.344;2023-02-28T06:13:13;50.33;;;23.40;;
12218;SDS011;6172;42.646;23.344;2023-02-28T06:15:40;48.20;;;23.60;;
12218;SDS011;6172;42.646;23.344;2023-02-28T06:18:08;49.20;;;22.87;;
12218;SDS011;6172;42.646;23.344;2023-02-28T06:20:36;44.13;;;21.97;;
12218;SDS011;6172;42.646;23.344;2023-02-28T06:23:04;47.23;;;23.70;;
12218;SDS011;6172;42.646;23.344;2023-02-28T06:25:32;46.47;;;21.83;;
12218;SDS011;6172;42.646;23.344;2023-02-28T06:27:59;43.20;;;21.10;;
12218;SDS011;6172;42.646;23.344;2023-02-28T06:30:27;44.53;;;22.20;;
12218;SDS011;6172;42.646;23.344;2023-02-28T06:32:56;39.90;;;21.37;;
12218;SDS011;6172;42.646;23.344;2023-02-28T06:35:23;42.50;;;21.10;;
12218;SDS011;6172;42.646;23.344;2023-02-28T06:37:50;42.30;;;21.20;;
12218;SDS011;6172;42.646;23.344;2023-02-28T06:40:18;39.33;;;20.60;;
12218;SDS011;6172;42.646;23.344;2023-02-28T06:42:45;37.10;;;19.60;;
12218;SDS011;6172;42.646;23.344;2023-02-28T06:45:13;35.50;;;19.70;;
12218;SDS011;6172;42.646;23.344;2023-02-28T06:47:40;35.73;;;19.13;;
12218;SDS011;6172;42.646;23.344;2023-02-28T06:50:09;37.27;;;18.73;;
12218;SDS011;6172;42.646;23.344;2023-02-28T06:52:37;37.40;;;19.33;;
12218;SDS011;6172;42.646;23.344;2023-02-28T06:55:06;37.40;;;20.97;;
12218;SDS011;6172;42.646;23.344;2023-02-28T06:57:35;35.13;;;18.90;;
12218;SDS011;6172;42.646;23.344;2023-02-28T07:00:04;34.53;;;19.47;;
12218;SDS011;6172;42.646;23.344;2023-02-28T07:02:35;32.37;;;17.37;;
12218;SDS011;6172;42.646;23.344;2023-02-28T07:05:02;31.13;;;18.07;;
12218;SDS011;6172;42.646;23.344;2023-02-28T07:07:31;37.40;;;19.97;;
12218;SDS011;6172;42.646;23.344;2023-02-28T07:12:59;33.93;;;18.40;;
12218;SDS011;6172;42.646;23.344;2023-02-28T07:15:26;31.60;;;18.40;;
12218;SDS011;6172;42.646;23.344;2023-02-28T07:17:55;34.43;;;19.50;;
12218;SDS011;6172;42.646;23.344;2023-02-28T07:20:22;37.77;;;21.10;;
12218;SDS011;6172;42.646;23.344;2023-02-28T07:22:50;37.13;;;20.73;;
12218;SDS011;6172;42.646;23.344;2023-02-28T07:25:21;37.07;;;21.17;;
12218;SDS011;6172;42.646;23.344;2023-02-28T07:27:48;34.83;;;19.70;;
12218;SDS011;6172;42.646;23.344;2023-02-28T07:30:17;39.70;;;20.47;;
12218;SDS011;6172;42.646;23.344;2023-02-28T07:32:44;43.07;;;22.33;;
12218;SDS011;6172;42.646;23.344;2023-02-28T07:35:11;44.50;;;22.07;;
12218;SDS011;6172;42.646;23.344;2023-02-28T07:37:41;37.90;;;21.13;;
12218;SDS011;6172;42.646;23.344;2023-02-28T07:40:09;40.83;;;21.20;;
12218;SDS011;6172;42.646;23.344;2023-02-28T07:42:37;40.43;;;22.53;;
12218;SDS011;6172;42.646;23.344;2023-02-28T07:45:07;34.80;;;20.57;;
12218;SDS011;6172;42.646;23.344;2023-02-28T07:47:38;37.83;;;19.37;;
12218;SDS011;6172;42.646;23.344;2023-02-28T07:50:05;35.77;;;20.37;;
12218;SDS011;6172;42.646;23.344;2023-02-28T07:52:41;35.23;;;19.93;;
12218;SDS011;6172;42.646;23.344;2023-02-28T07:55:08;37.33;;;18.63;;
12218;SDS011;6172;42.646;23.344;2023-02-28T07:57:36;37.23;;;20.00;;
12218;SDS011;6172;42.646;23.344;2023-02-28T08:00:03;35.47;;;19.90;;
12218;SDS011;6172;42.646;23.344;2023-02-28T08:02:34;34.30;;;20.30;;
12218;SDS011;6172;42.646;23.344;2023-02-28T08:05:03;31.83;;;18.93;;
12218;SDS011;6172;42.646;23.344;2023-02-28T08:07:31;34.37;;;20.97;;
12218;SDS011;6172;42.646;23.344;2023-02-28T08:09:58;42.20;;;20.60;;
12218;SDS011;6172;42.646;23.344;2023-02-28T08:12:26;40.40;;;21.10;;
12218;SDS011;6172;42.646;23.344;2023-02-28T08:14:53;41.43;;;21.40;;
12218;SDS011;6172;42.646;23.344;2023-02-28T08:17:20;35.67;;;21.13;;
12218;SDS011;6172;42.646;23.344;2023-02-28T08:19:46;34.10;;;20.03;;
12218;SDS011;6172;42.646;23.344;2023-02-28T08:22:15;31.73;;;18.43;;
12218;SDS011;6172;42.646;23.344;2023-02-28T08:24:42;31.70;;;17.27;;
12218;SDS011;6172;42.646;23.344;2023-02-28T08:27:09;30.87;;;16.83;;
12218;SDS011;6172;42.646;23.344;2023-02-28T08:29:36;25.57;;;16.50;;
12218;SDS011;6172;42.646;23.344;2023-02-28T08:32:04;25.87;;;15.63;;
12218;SDS011;6172;42.646;23.344;2023-02-28T08:34:32;27.17;;;14.03;;
12218;SDS011;6172;42.646;23.344;2023-02-28T08:36:59;29.80;;;15.40;;
12218;SDS011;6172;42.646;23.344;2023-02-28T08:39:27;30.17;;;15.03;;
12218;SDS011;6172;42.646;23.344;2023-02-28T08:41:54;31.30;;;14.60;;
12218;SDS011;6172;42.646;23.344;2023-02-28T08:44:21;27.47;;;14.40;;
12218;SDS011;6172;42.646;23.344;2023-02-28T08:46:48;33.23;;;18.43;;
12218;SDS011;6172;42.646;23.344;2023-02-28T08:49:15;34.90;;;19.83;;
12218;SDS011;6172;42.646;23.344;2023-02-28T08:51:43;32.70;;;19.67;;
12218;SDS011;6172;42.646;23.344;2023-02-28T08:54:10;39.33;;;19.77;;
12218;SDS011;6172;42.646;23.344;2023-02-28T08:56:41;39.90;;;20.23;;
12218;SDS011;6172;42.646;23.344;2023-02-28T08:59:09;31.87;;;19.13;;
12218;SDS011;6172;42.646;23.344;2023-02-28T09:01:37;33.13;;;19.00;;
12218;SDS011;6172;42.646;23.344;2023-02-28T09:04:04;34.40;;;20.33;;
12218;SDS011;6172;42.646;23.344;2023-02-28T09:06:33;37.80;;;21.70;;
12218;SDS011;6172;42.646;23.344;2023-02-28T09:09:02;38.27;;;20.77;;
12218;SDS011;6172;42.646;23.344;2023-02-28T09:11:42;38.53;;;21.77;;
12218;SDS011;6172;42.646;23.344;2023-02-28T09:14:09;36.30;;;21.07;;
12218;SDS011;6172;42.646;23.344;2023-02-28T09:16:37;38.50;;;20.70;;
12218;SDS011;6172;42.646;23.344;2023-02-28T09:19:04;46.33;;;20.83;;
12218;SDS011;6172;42.646;23.344;2023-02-28T09:21:31;36.60;;;20.53;;
12218;SDS011;6172;42.646;23.344;2023-02-28T09:24:12;42.07;;;21.93;;
12218;SDS011;6172;42.646;23.344;2023-02-28T09:26:42;37.40;;;19.97;;
12218;SDS011;6172;42.646;23.344;2023-02-28T09:29:09;33.60;;;17.43;;
12218;SDS011;6172;42.646;23.344;2023-02-28T09:31:37;37.47;;;17.50;;
12218;SDS011;6172;42.646;23.344;2023-02-28T09:34:06;27.23;;;16.17;;
12218;SDS011;6172;42.646;23.344;2023-02-28T09:36:33;30.03;;;15.83;;
12218;SDS011;6172;42.646;23.344;2023-02-28T09:39:00;31.00;;;15.90;;
12218;SDS011;6172;42.646;23.344;2023-02-28T09:41:30;26.37;;;13.93;;
12218;SDS011;6172;42.646;23.344;2023-02-28T09:44:16;26.20;;;13.73;;
12218;SDS011;6172;42.646;23.344;2023-02-28T09:46:53;25.00;;;13.37;;
12218;SDS011;6172;42.646;23.344;2023-02-28T09:49:25;23.03;;;12.37;;
12218;SDS011;6172;42.646;23.344;2023-02-28T09:52:02;27.70;;;12.57;;
12218;SDS011;6172;42.646;23.344;2023-02-28T09:54:34;30.07;;;12.93;;
12218;SDS011;6172;42.646;23.344;2023-02-28T09:57:04;20.83;;;11.80;;
12218;SDS011;6172;42.646;23.344;2023-02-28T10:06:11;25.60;;;11.17;;
12218;SDS011;6172;42.646;23.344;2023-02-28T10:08:45;18.43;;;10.40;;
12218;SDS011;6172;42.646;23.344;2023-02-28T10:11:19;17.63;;;10.30;;
12218;SDS011;6172;42.646;23.344;2023-02-28T10:13:52;20.37;;;10.33;;
12218;SDS011;6172;42.646;23.344;2023-02-28T10:16:28;18.07;;;9.67;;
12218;SDS011;6172;42.646;23.344;2023-02-28T10:19:03;18.63;;;10.03;;
12218;SDS011;6172;42.646;23.344;2023-02-28T10:21:36;18.93;;;10.60;;
12218;SDS011;6172;42.646;23.344;2023-02-28T10:24:11;21.53;;;10.50;;
12218;SDS011;6172;42.646;23.344;2023-02-28T10:26:45;21.43;;;10.73;;
12218;SDS011;6172;42.646;23.344;2023-02-28T10:29:14;17.47;;;10.33;;
12218;SDS011;6172;42.646;23.344;2023-02-28T10:31:41;24.67;;;10.73;;
12218;SDS011;6172;42.646;23.344;2023-02-28T10:34:12;21.27;;;10.20;;
12218;SDS011;6172;42.646;23.344;2023-02-28T10:36:41;20.67;;;10.27;;
12218;SDS011;6172;42.646;23.344;2023-02-28T10:42:18;23.63;;;10.13;;
12218;SDS011;6172;42.646;23.344;2023-02-28T10:47:40;19.83;;;9.90;;
12218;SDS011;6172;42.646;23.344;2023-02-28T10:50:33;20.60;;;10.30;;
12218;SDS011;6172;42.646;23.344;2023-02-28T10:53:10;16.83;;;8.73;;
12218;SDS011;6172;42.646;23.344;2023-02-28T10:55:58;18.13;;;9.50;;
12218;SDS011;6172;42.646;23.344;2023-02-28T10:58:29;23.33;;;10.93;;
12218;SDS011;6172;42.646;23.344;2023-02-28T11:00:58;24.20;;;11.20;;
12218;SDS011;6172;42.646;23.344;2023-02-28T11:03:31;20.43;;;10.67;;
12218;SDS011;6172;42.646;23.344;2023-02-28T11:06:07;20.13;;;10.50;;
12218;SDS011;6172;42.646;23.344;2023-02-28T11:08:46;16.57;;;9.10;;
12218;SDS011;6172;42.646;23.344;2023-02-28T11:11:15;17.93;;;8.90;;
12218;SDS011;6172;42.646;23.344;2023-02-28T11:14:24;18.20;;;9.80;;
12218;SDS011;6172;42.646;23.344;2023-02-28T11:16:54;27.23;;;11.87;;
12218;SDS011;6172;42.646;23.344;2023-02-28T11:19:26;19.93;;;10.57;;
12218;SDS011;6172;42.646;23.344;2023-02-28T11:22:02;18.90;;;10.60;;
12218;SDS011;6172;42.646;23.344;2023-02-28T11:24:33;19.43;;;10.13;;
12218;SDS011;6172;42.646;23.344;2023-02-28T11:27:03;17.47;;;9.53;;
12218;SDS011;6172;42.646;23.344;2023-02-28T11:29:30;19.13;;;10.10;;
12218;SDS011;6172;42.646;23.344;2023-02-28T11:32:11;20.67;;;9.87;;
12218;SDS011;6172;42.646;23.344;2023-02-28T11:34:42;17.97;;;9.37;;
12218;SDS011;6172;42.646;23.344;2023-02-28T11:37:13;18.90;;;10.50;;
12218;SDS011;6172;42.646;23.344;2023-02-28T11:39:44;26.00;;;10.70;;
12218;SDS011;6172;42.646;23.344;2023-02-28T11:42:24;21.60;;;11.37;;
12218;SDS011;6172;42.646;23.344;2023-02-28T11:45:15;28.97;;;11.80;;
12218;SDS011;6172;42.646;23.344;2023-02-28T11:47:52;26.33;;;11.93;;
12218;SDS011;6172;42.646;23.344;2023-02-28T11:50:37;18.63;;;10.23;;
12218;SDS011;6172;42.646;23.344;2023-02-28T11:53:17;18.40;;;8.80;;
12218;SDS011;6172;42.646;23.344;2023-02-28T11:55:49;15.17;;;7.77;;
12218;SDS011;6172;42.646;23.344;2023-02-28T11:58:38;22.40;;;11.30;;
12218;SDS011;6172;42.646;23.344;2023-02-28T12:01:19;21.30;;;10.67;;
12218;SDS011;6172;42.646;23.344;2023-02-28T12:03:58;24.13;;;11.37;;
12218;SDS011;6172;42.646;23.344;2023-02-28T12:06:33;22.57;;;11.73;;
12218;SDS011;6172;42.646;23.344;2023-02-28T12:09:15;20.60;;;9.37;;
12218;SDS011;6172;42.646;23.344;2023-02-28T12:11:55;12.33;;;6.80;;
12218;SDS011;6172;42.646;23.344;2023-02-28T12:17:27;16.20;;;8.37;;
12218;SDS011;6172;42.646;23.344;2023-02-28T12:20:06;19.73;;;7.67;;
12218;SDS011;6172;42.646;23.344;2023-02-28T12:22:46;21.27;;;9.50;;
12218;SDS011;6172;42.646;23.344;2023-02-28T12:25:28;18.60;;;8.53;;
12218;SDS011;6172;42.646;23.344;2023-02-28T12:28:09;20.33;;;10.90;;
12218;SDS011;6172;42.646;23.344;2023-02-28T12:30:39;22.17;;;11.30;;
12218;SDS011;6172;42.646;23.344;2023-02-28T12:33:14;23.23;;;10.90;;
12218;SDS011;6172;42.646;23.344;2023-02-28T12:35:47;20.73;;;10.13;;
12218;SDS011;6172;42.646;23.344;2023-02-28T12:38:21;22.67;;;11.43;;
12218;SDS011;6172;42.646;23.344;2023-02-28T12:40:54;23.03;;;12.13;;
12218;SDS011;6172;42.646;23.344;2023-02-28T12:43:27;19.33;;;10.10;;
12218;SDS011;6172;42.646;23.344;2023-02-28T12:46:00;21.63;;;11.03;;
12218;SDS011;6172;42.646;23.344;2023-02-28T12:48:37;24.80;;;11.20;;
12218;SDS011;6172;42.646;23.344;2023-02-28T12:51:08;25.07;;;11.23;;
12218;SDS011;6172;42.646;23.344;2023-02-28T12:53:40;26.23;;;11.53;;
12218;SDS011;6172;42.646;23.344;2023-02-28T12:56:24;20.93;;;10.57;;
12218;SDS011;6172;42.646;23.344;2023-02-28T12:59:00;17.30;;;9.93;;
12218;SDS011;6172;42.646;23.344;2023-02-28T13:04:55;19.87;;;10.70;;
12218;SDS011;6172;42.646;23.344;2023-02-28T13:07:47;16.10;;;9.80;;
12218;SDS011;6172;42.646;23.344;2023-02-28T13:10:39;28.40;;;10.77;;
12218;SDS011;6172;42.646;23.344;2023-02-28T13:13:15;20.67;;;10.33;;
12218;SDS011;6172;42.646;23.344;2023-02-28T13:15:56;23.43;;;11.23;;
12218;SDS011;6172;42.646;23.344;2023-02-28T13:18:30;18.63;;;9.13;;
12218;SDS011;6172;42.646;23.344;2023-02-28T13:23:59;23.87;;;9.50;;
12218;SDS011;6172;42.646;23.344;2023-02-28T13:29:33;15.67;;;7.77;;
12218;SDS011;6172;42.646;23.344;2023-02-28T13:38:12;16.87;;;8.43;;
12218;SDS011;6172;42.646;23.344;2023-02-28T13:40:49;17.67;;;7.87;;
12218;SDS011;6172;42.646;23.344;2023-02-28T13:43:17;18.17;;;8.07;;
12218;SDS011;6172;42.646;23.344;2023-02-28T13:46:06;14.23;;;7.10;;
12218;SDS011;6172;42.646;23.344;2023-02-28T13:48:37;16.00;;;6.90;;
12218;SDS011;6172;42.646;23.344;2023-02-28T13:54:24;19.13;;;8.27;;
12218;SDS011;6172;42.646;23.344;2023-02-28T13:57:05;20.27;;;7.10;;
12218;SDS011;6172;42.646;23.344;2023-02-28T13:59:44;16.47;;;7.07;;
12218;SDS011;6172;42.646;23.344;2023-02-28T14:05:16;16.23;;;8.07;;
12218;SDS011;6172;42.646;23.344;2023-02-28T14:07:47;23.23;;;8.87;;
12218;SDS011;6172;42.646;23.344;2023-02-28T14:10:21;19.13;;;8.37;;
12218;SDS011;6172;42.646;23.344;2023-02-28T14:12:59;20.33;;;8.37;;
12218;SDS011;6172;42.646;23.344;2023-02-28T14:15:41;15.33;;;7.33;;
12218;SDS011;6172;42.646;23.344;2023-02-28T14:18:17;14.33;;;7.40;;
12218;SDS011;6172;42.646;23.344;2023-02-28T14:20:52;10.57;;;6.70;;
12218;SDS011;6172;42.646;23.344;2023-02-28T14:23:26;15.03;;;7.27;;
12218;SDS011;6172;42.646;23.344;2023-02-28T14:26:07;21.90;;;8.30;;
12218;SDS011;6172;42.646;23.344;2023-02-28T14:28:44;15.67;;;7.33;;
12218;SDS011;6172;42.646;23.344;2023-02-28T14:31:22;19.53;;;7.93;;
12218;SDS011;6172;42.646;23.344;2023-02-28T14:34:00;20.10;;;8.57;;
12218;SDS011;6172;42.646;23.344;2023-02-28T14:36:42;18.50;;;8.60;;
12218;SDS011;6172;42.646;23.344;2023-02-28T14:39:11;17.23;;;8.73;;
12218;SDS011;6172;42.646;23.344;2023-02-28T14:41:43;17.70;;;8.23;;
12218;SDS011;6172;42.646;23.344;2023-02-28T14:44:13;18.90;;;9.43;;
12218;SDS011;6172;42.646;23.344;2023-02-28T14:46:43;20.93;;;8.93;;
12218;SDS011;6172;42.646;23.344;2023-02-28T14:49:15;16.53;;;9.37;;
12218;SDS011;6172;42.646;23.344;2023-02-28T14:51:47;17.70;;;8.27;;
12218;SDS011;6172;42.646;23.344;2023-02-28T14:54:16;18.60;;;9.07;;
12218;SDS011;6172;42.646;23.344;2023-02-28T14:56:49;15.13;;;8.00;;
12218;SDS011;6172;42.646;23.344;2023-02-28T14:59:23;15.17;;;8.43;;
12218;SDS011;6172;42.646;23.344;2023-02-28T15:04:54;21.87;;;8.37;;
12218;SDS011;6172;42.646;23.344;2023-02-28T15:07:24;19.27;;;9.27;;
12218;SDS011;6172;42.646;23.344;2023-02-28T15:12:46;18.70;;;8.60;;
12218;SDS011;6172;42.646;23.344;2023-02-28T15:15:19;20.80;;;9.30;;
12218;SDS011;6172;42.646;23.344;2023-02-28T15:17:49;16.33;;;8.17;;
12218;SDS011;6172;42.646;23.344;2023-02-28T15:20:19;15.67;;;8.03;;
12218;SDS011;6172;42.646;23.344;2023-02-28T15:22:49;14.63;;;7.73;;
12218;SDS011;6172;42.646;23.344;2023-02-28T15:25:19;14.43;;;7.50;;
12218;SDS011;6172;42.646;23.344;2023-02-28T15:27:49;13.03;;;7.07;;
12218;SDS011;6172;42.646;23.344;2023-02-28T15:30:20;15.77;;;7.87;;
12218;SDS011;6172;42.646;23.344;2023-02-28T15:33:04;15.10;;;7.57;;
12218;SDS011;6172;42.646;23.344;2023-02-28T15:35:37;16.50;;;8.93;;
12218;SDS011;6172;42.646;23.344;2023-02-28T15:38:12;18.67;;;9.40;;